TimeCST,TemperatureF,Dew PointF,Humidity,Sea Level PressureIn,VisibilityMPH,Wind Direction,Wind SpeedMPH,Gust SpeedMPH,PrecipitationIn,Events,Conditions,WindDirDegrees,DateUTC
12:13 AM,21.2,21.2,100,29.87,10.0,East,4.6,-,N/A,,Clear,80,2012-12-13 06:13:00
12:33 AM,21.2,21.2,100,29.86,10.0,NNE,6.9,-,N/A,,Scattered Clouds,20,2012-12-13 06:33:00
12:53 AM,21.2,21.2,100,29.87,10.0,NNE,5.8,-,N/A,,Overcast,30,2012-12-13 06:53:00
1:14 AM,23.0,21.2,93,29.86,10.0,NNE,6.9,-,N/A,,Mostly Cloudy,20,2012-12-13 07:14:00
1:53 AM,23.0,21.2,93,29.87,10.0,NNE,5.8,-,N/A,,Overcast,20,2012-12-13 07:53:00
2:14 AM,23.0,21.2,93,29.88,10.0,NNE,5.8,-,N/A,,Scattered Clouds,30,2012-12-13 08:14:00
2:33 AM,23.0,21.2,93,29.87,10.0,NNE,9.2,-,N/A,,Clear,20,2012-12-13 08:33:00
2:53 AM,21.2,19.4,93,29.88,10.0,NNE,8.1,-,N/A,,Clear,20,2012-12-13 08:53:00
3:14 AM,21.2,19.4,93,29.88,10.0,NNE,9.2,-,N/A,,Clear,20,2012-12-13 09:14:00
3:33 AM,23.0,19.4,86,29.88,10.0,NNE,10.4,-,N/A,,Clear,30,2012-12-13 09:33:00
3:53 AM,21.2,19.4,93,29.88,10.0,NNE,8.1,-,N/A,,Clear,30,2012-12-13 09:53:00
4:14 AM,21.2,19.4,93,29.90,10.0,North,8.1,-,N/A,,Clear,360,2012-12-13 10:14:00
4:33 AM,23.0,19.4,86,29.90,10.0,North,9.2,-,N/A,,Scattered Clouds,10,2012-12-13 10:33:00
4:53 AM,24.8,21.2,86,29.90,10.0,NNE,12.7,-,N/A,,Scattered Clouds,20,2012-12-13 10:53:00
5:14 AM,23.0,19.4,86,29.91,10.0,NNE,10.4,-,N/A,,Clear,20,2012-12-13 11:14:00
5:53 AM,23.0,19.4,86,29.92,10.0,NNE,12.7,-,N/A,,Clear,20,2012-12-13 11:53:00
6:14 AM,23.0,19.4,86,29.93,7.0,NNE,12.7,-,N/A,,Clear,20,2012-12-13 12:14:00
6:33 AM,23.0,19.4,86,29.93,7.0,NNE,13.8,-,N/A,,Clear,20,2012-12-13 12:33:00
6:53 AM,21.2,19.4,93,29.95,7.0,NNE,11.5,-,N/A,,Clear,20,2012-12-13 12:53:00
7:14 AM,21.2,19.4,93,29.96,7.0,North,10.4,-,N/A,,Clear,10,2012-12-13 13:14:00
7:33 AM,21.2,19.4,93,29.96,5.0,North,10.4,-,N/A,,Clear,10,2012-12-13 13:33:00
7:53 AM,21.2,19.4,93,29.96,5.0,NNE,10.4,-,N/A,,Scattered Clouds,20,2012-12-13 13:53:00
8:13 AM,23.0,21.2,93,29.96,5.0,NNE,10.4,-,N/A,,Mostly Cloudy,20,2012-12-13 14:13:00
8:33 AM,24.8,21.2,86,29.97,5.0,NNE,10.4,-,N/A,,Overcast,30,2012-12-13 14:33:00
8:53 AM,24.8,21.2,86,29.98,5.0,NNE,10.4,-,N/A,,Overcast,20,2012-12-13 14:53:00
9:13 AM,26.6,23.0,86,29.99,7.0,NNE,10.4,-,N/A,,Overcast,20,2012-12-13 15:13:00
9:53 AM,26.6,21.2,80,30.00,5.0,NNE,6.9,-,N/A,,Mostly Cloudy,20,2012-12-13 15:53:00
10:13 AM,26.6,21.2,80,30.00,5.0,North,9.2,-,N/A,,Mostly Cloudy,360,2012-12-13 16:13:00
10:33 AM,26.6,21.2,80,30.01,5.0,North,6.9,-,N/A,,Scattered Clouds,10,2012-12-13 16:33:00
10:54 AM,26.6,21.2,80,30.02,7.0,North,6.9,-,N/A,,Scattered Clouds,10,2012-12-13 16:54:00
11:13 AM,26.6,21.2,80,30.03,7.0,North,4.6,-,N/A,,Scattered Clouds,10,2012-12-13 17:13:00
11:33 AM,26.6,21.2,80,30.03,7.0,NNW,6.9,-,N/A,,Scattered Clouds,340,2012-12-13 17:33:00
11:54 AM,28.4,21.2,74,30.03,7.0,NNW,5.8,-,N/A,,Unknown,340,2012-12-13 17:54:00
12:13 PM,28.4,23.0,80,30.03,7.0,NW,5.8,-,N/A,,Scattered Clouds,310,2012-12-13 18:13:00
12:33 PM,30.2,24.8,80,30.03,7.0,NNW,9.2,-,N/A,,Unknown,330,2012-12-13 18:33:00
12:54 PM,28.4,23.0,80,30.03,7.0,NW,6.9,-,N/A,,Unknown,320,2012-12-13 18:54:00
1:13 PM,28.4,23.0,80,30.03,7.0,NW,5.8,-,N/A,,Mostly Cloudy,320,2012-12-13 19:13:00
1:33 PM,28.4,24.8,86,30.03,7.0,NW,5.8,-,N/A,,Overcast,320,2012-12-13 19:33:00
1:54 PM,28.4,23.0,80,30.03,7.0,NW,5.8,-,N/A,,Overcast,320,2012-12-13 19:54:00
2:13 PM,28.4,23.0,80,30.04,7.0,NW,4.6,-,N/A,,Overcast,320,2012-12-13 20:13:00
2:33 PM,28.4,23.0,80,30.04,7.0,NW,4.6,-,N/A,,Scattered Clouds,310,2012-12-13 20:33:00
2:54 PM,28.4,21.2,74,30.04,7.0,NW,4.6,-,N/A,,Clear,310,2012-12-13 20:54:00
3:13 PM,26.6,21.2,80,30.04,7.0,NW,3.5,-,N/A,,Clear,310,2012-12-13 21:13:00
3:33 PM,26.6,21.2,80,30.04,7.0,NW,5.8,-,N/A,,Clear,320,2012-12-13 21:33:00
3:54 PM,24.8,21.2,86,30.04,7.0,Calm,Calm,-,N/A,,Clear,0,2012-12-13 21:54:00
4:13 PM,24.8,19.4,80,30.04,10.0,North,4.6,-,N/A,,Clear,10,2012-12-13 22:13:00
4:54 PM,21.2,17.6,86,30.05,10.0,ENE,4.6,-,N/A,,Clear,70,2012-12-13 22:54:00
5:33 PM,19.4,17.6,93,30.07,7.0,Calm,Calm,-,N/A,,Clear,0,2012-12-13 23:33:00
6:13 PM,19.4,17.6,93,30.08,7.0,Calm,Calm,-,N/A,,Clear,0,2012-12-14 00:13:00
6:54 PM,19.4,17.6,93,30.08,4.0,Calm,Calm,-,N/A,,Clear,0,2012-12-14 00:54:00
7:13 PM,17.6,17.6,100,30.08,3.0,ENE,4.6,-,N/A,,Clear,60,2012-12-14 01:13:00
7:34 PM,17.6,15.8,93,30.08,4.0,Calm,Calm,-,N/A,,Clear,0,2012-12-14 01:34:00
7:53 PM,15.8,15.8,100,30.08,4.0,NE,4.6,-,N/A,,Clear,40,2012-12-14 01:53:00
8:13 PM,12.2,10.4,92,30.09,0.5,Calm,Calm,-,N/A,Fog,Light Freezing Fog,0,2012-12-14 02:13:00
8:34 PM,12.2,12.2,100,30.09,1.8,Calm,Calm,-,N/A,,Mostly Cloudy,0,2012-12-14 02:34:00
8:53 PM,17.6,17.6,100,30.08,3.0,Calm,Calm,-,N/A,,Clear,0,2012-12-14 02:53:00
9:13 PM,17.6,15.8,93,30.09,3.0,Calm,Calm,-,N/A,,Clear,0,2012-12-14 03:13:00
9:34 PM,17.6,15.8,93,30.09,1.5,Calm,Calm,-,N/A,,Clear,0,2012-12-14 03:34:00
9:53 PM,14.0,12.2,93,30.10,0.2,Calm,Calm,-,N/A,Fog,Light Freezing Fog,0,2012-12-14 03:53:00
10:13 PM,14.0,12.2,93,30.09,1.5,NE,3.5,-,N/A,,Mostly Cloudy,50,2012-12-14 04:13:00
10:34 PM,14.0,12.2,93,30.09,0.5,ENE,5.8,-,N/A,Fog,Light Freezing Fog,70,2012-12-14 04:34:00
10:53 PM,12.2,10.4,92,30.09,0.2,ENE,5.8,-,N/A,Fog,Light Freezing Fog,60,2012-12-14 04:53:00
11:13 PM,15.8,15.8,100,30.09,2.5,East,5.8,-,N/A,,Scattered Clouds,80,2012-12-14 05:13:00
11:53 PM,12.2,10.4,92,30.09,3.0,ENE,5.8,-,N/A,,Clear,60,2012-12-14 05:53:00